Shinkai Maru — JJ4012 — position and weather

sailwx.info

Track history (hours):
 
Tides and Currents Weather Stations Pressure Air Temp Water Temp Dewpoint Dewpoint Depression Visibility Wind Speed Wind Dir Waves Ship Positions

Shinkai Maru

Last reported at 2015-Jan-22 00:09 UTC. Time now 2015-Jan-28 09:14 UTC.
Position N 34°37' E 134°54'.

Length 76 m; draft 4.2 m.

Type: Cargo ship. MMSI: 431301346.

Date/timePositionNaut miles runAvg speedWind from/ knotsBaromVisibWave heightAir tempDewpointWater temp
2015-Jan-22 00:09N 34°37' E 134°54'915.4
2015-Jan-21 23:33N 34°36' E 135°05'6 7.9
2015-Jan-21 22:45N 34°40' E 135°12'0 0.0
2015-Jan-21 22:33N 34°40' E 135°12'0 0.0
2015-Jan-21 21:27N 34°40' E 135°12'0 0.0
2015-Jan-21 20:27N 34°40' E 135°12'0 0.0
2015-Jan-21 19:33N 34°40' E 135°12'0 0.0
2015-Jan-21 18:33N 34°40' E 135°12'0 0.0
2015-Jan-21 17:33N 34°40' E 135°12'0 0.0
2015-Jan-21 16:33N 34°40' E 135°12'0 0.0
2015-Jan-21 15:33N 34°40' E 135°12'2 2.2
2015-Jan-21 14:33N 34°38' E 135°11'1111.0
2015-Jan-21 13:33N 34°28' E 135°04'1312.0
2015-Jan-21 12:31N 34°16' E 134°59'1212.2
2015-Jan-21 11:33N 34°05' E 135°00'22810.2
2015-Jan-20 13:15N 34°59' E 139°29'912.8
2015-Jan-20 12:33N 35°04' E 139°38'1312.6
2015-Jan-20 11:34N 35°15' E 139°46'1111.3
2015-Jan-20 10:33N 35°26' E 139°45'2 0.1
2015-Jan-19 18:29N 35°25' E 139°48'1011.0
2015-Jan-19 17:33N 35°15' E 139°47'1111.2
2015-Jan-19 16:33N 35°05' E 139°41'1211.4
2015-Jan-19 15:30N 34°58' E 139°29'226 9.4
2015-Jan-18 15:23N 34°19' E 134°58'1112.9
2015-Jan-18 14:30N 34°30' E 135°02'9 9.6
2015-Jan-18 13:33N 34°37' E 134°55'1 0.1
2015-Jan-18 02:26N 34°38' E 134°54'910.8
2015-Jan-18 01:33N 34°35' E 135°05'1411.7
2015-Jan-18 00:22N 34°22' E 135°02'1011.8
2015-Jan-17 23:33N 34°12' E 135°00'1211.8
2015-Jan-17 22:31N 34°00' E 135°02'30 0.7
2015-Jan-16 02:32N 34°31' E 135°03'10 9.6
2015-Jan-16 01:32N 34°37' E 134°54'2 0.1
2015-Jan-15 06:15N 34°39' E 134°52'912.4
2015-Jan-15 05:33N 34°37' E 135°02'2210.5
2015-Jan-15 03:27N 34°15' E 134°60'1010.8
2015-Jan-15 02:33N 34°05' E 135°01'191 6.1
2015-Jan-13 19:21N 35°06' E 138°41'  
Track history (hours):
 
Tides and Currents Weather Stations Pressure Air Temp Water Temp Dewpoint Dewpoint Depression Visibility Wind Speed Wind Dir Waves Ship Positions

Shinkai Maru

Last reported at 2015-Jan-22 00:09 UTC. Time now 2015-Jan-28 09:14 UTC.
Position N 34°37' E 134°54'.

Length 76 m; draft 4.2 m.

Type: Cargo ship. MMSI: 431301346.

Date/timePositionNaut miles runAvg speedWind from/ knotsBaromVisibWave heightAir tempDewpointWater temp
2015-Jan-22 00:09N 34°37' E 134°54'915.4
2015-Jan-21 23:33N 34°36' E 135°05'6 7.9
2015-Jan-21 22:45N 34°40' E 135°12'0 0.0
2015-Jan-21 22:33N 34°40' E 135°12'0 0.0
2015-Jan-21 21:27N 34°40' E 135°12'0 0.0
2015-Jan-21 20:27N 34°40' E 135°12'0 0.0
2015-Jan-21 19:33N 34°40' E 135°12'0 0.0
2015-Jan-21 18:33N 34°40' E 135°12'0 0.0
2015-Jan-21 17:33N 34°40' E 135°12'0 0.0
2015-Jan-21 16:33N 34°40' E 135°12'0 0.0
2015-Jan-21 15:33N 34°40' E 135°12'2 2.2
2015-Jan-21 14:33N 34°38' E 135°11'1111.0
2015-Jan-21 13:33N 34°28' E 135°04'1312.0
2015-Jan-21 12:31N 34°16' E 134°59'1212.2
2015-Jan-21 11:33N 34°05' E 135°00'22810.2
2015-Jan-20 13:15N 34°59' E 139°29'912.8
2015-Jan-20 12:33N 35°04' E 139°38'1312.6
2015-Jan-20 11:34N 35°15' E 139°46'1111.3
2015-Jan-20 10:33N 35°26' E 139°45'2 0.1
2015-Jan-19 18:29N 35°25' E 139°48'1011.0
2015-Jan-19 17:33N 35°15' E 139°47'1111.2
2015-Jan-19 16:33N 35°05' E 139°41'1211.4
2015-Jan-19 15:30N 34°58' E 139°29'226 9.4
2015-Jan-18 15:23N 34°19' E 134°58'1112.9
2015-Jan-18 14:30N 34°30' E 135°02'9 9.6
2015-Jan-18 13:33N 34°37' E 134°55'1 0.1
2015-Jan-18 02:26N 34°38' E 134°54'910.8
2015-Jan-18 01:33N 34°35' E 135°05'1411.7
2015-Jan-18 00:22N 34°22' E 135°02'1011.8
2015-Jan-17 23:33N 34°12' E 135°00'1211.8
2015-Jan-17 22:31N 34°00' E 135°02'30 0.7
2015-Jan-16 02:32N 34°31' E 135°03'10 9.6
2015-Jan-16 01:32N 34°37' E 134°54'2 0.1
2015-Jan-15 06:15N 34°39' E 134°52'912.4
2015-Jan-15 05:33N 34°37' E 135°02'2210.5
2015-Jan-15 03:27N 34°15' E 134°60'1010.8
2015-Jan-15 02:33N 34°05' E 135°01'191 6.1
2015-Jan-13 19:21N 35°06' E 138°41'  

Dump ship's entire track history